Puchberg, Austria

11:05 AM CEST on April 26, 2015 (GMT +0200)
INIEDERS54 | | Change Station
CLOSE
Current Station
Personal Weather Station
Location: Gruenbach am Schneeberg, Niederosterreich
Elevation: 2190 ft
Nearby Weather Stations

Elev 2190 ft 47.80 °N, 15.97 °E | Updated 1 minute ago

Mostly Cloudy
Mostly Cloudy
66.3 °F
Feels Like 66.3 °F
N
0.0
Wind Variable Wind from North
Gusts 0.0 mph

Today
High -- | Low -- °F
--% Chance of Precip.
Yesterday
High -- | Low -- °F
Precip. -- in
5:48 AM 8:01 PM
First Quarter, 54% visible
Pressure 29.89 in
Visibility 13.7 miles
Clouds Few 4000 ft
Mostly Cloudy 10000 ft
Dew Point 50 °F
Humidity 55%
Rainfall 0.00 in
Snow Depth Not available.
UV 3 out of 12
Pollen Not available.
Air Quality Not available.
Flu Activity Not available.
METAR LOAV 260800Z 33014KT 22KM FEW040CU BKN100AC 18/09 Q1012 RMK BKN

More Conditions Fewer Conditions

Pressure 29.89 in
Visibility 13.7 miles
Clouds Few 4000 ft
Mostly Cloudy 10000 ft
Dew Point 50 °F
Humidity 55%
Rainfall 0.00 in
Snow Depth Not available.
UV 3 out of 12
Pollen Not available.
Air Quality Not available.
Flu Activity Not available.
METAR LOAV 260800Z 33014KT 22KM FEW040CU BKN100AC 18/09 Q1012 RMK BKN

More Conditions Fewer Conditions

10-Day Weather Forecast

Almanac

Astronomy

Apr. 26, 2015 Rise Set
Actual Time
Civil Twilight
Nautical Twilight
Astronomical Twilight
Moon
Length of Visible Light
Length of Day
Tomorrow will be .
, % of the Moon is Illuminated

Today's Extremes

Country Highs Country Lows

Community

WunderPhotos

Upload Photos

1,816,953 photos uploaded!

WunderBlogs® & News

Nearby

Air Quality

  Air Quality AQ Index Pollutant
Not available.

Snow Depth

Station Depth Elevation

Earthquake Activity

City Distance Mag. Time & Date
Minimum magnitude displayed is 2.5.

Coastal Water Temperatures

Place Temperature

Stations

Nearby Weather Stations

Station Location Temp. Windchill Dew Point Humidity Wind Precip. Elev Updated Type